Emerald Princess — ZCDP8 — position and weather

sailwx.info

Track history (hours):
 
Tides and Currents Weather Stations Pressure Air Temp Water Temp Dewpoint Dewpoint Depression Visibility Wind Speed Wind Dir Waves Ship Positions

Emerald Princess

Last reported at 2017-May-28 12:00 UTC. Time now 2017-May-28 12:23 UTC.
Position N 47°40' W 122°28'.

Type: Passenger vessel. MMSI: 310531000.

Date/timePositionNaut miles runAvg speedWind from/ knotsBaromVisibWave heightAir tempDewpointWater temp
2017-May-28 12:00N 47°40' W 122°28'713.3
2017-May-28 11:30N 47°46' W 122°27'713.7
2017-May-28 11:00N 47°53' W 122°29'816.6
2017-May-28 10:30N 47°60' W 122°37'1019.1
2017-May-28 10:00N 48°08' W 122°43'1019.6
2017-May-28 09:30N 48°12' W 122°56'918.5
2017-May-28 09:00N 48°12' W 123°10'917.9
2017-May-28 08:30N 48°11' W 123°24'5 9.6
2017-May-28 08:01N 48°13' W 123°30'917.4
2017-May-28 07:30N 48°21' W 123°26'4 8.3
2017-May-28 06:59N 48°25' W 123°24'0 0.0
2017-May-28 06:02N 48°25' W 123°24'0 0.1
2017-May-28 05:56N 48°25' W 123°24'3 1.3
2017-May-28 03:19N 48°22' W 123°24'3 8.4
2017-May-28 03:00N 48°19' W 123°25'711.1
2017-May-28 02:23N 48°13' W 123°31'1319.7
2017-May-28 01:45N 48°25' W 123°24'0 1.0
2017-May-28 01:30N 48°25' W 123°24'1 2.9
2017-May-28 01:00N 48°23' W 123°24'2550.2
2017-May-28 00:30N 48°15' W 123°60'918.2
2017-May-28 00:00N 48°18' W 124°12'1020.4
2017-May-27 23:30N 48°23' W 124°26'1121.4
2017-May-27 23:00N 48°27' W 124°41'2951.7
2017-May-27 22:27N 48°15' W 124°01'816.3
2017-May-27 21:59N 48°18' W 124°12'816.6
2017-May-27 21:30N 48°22' W 124°23'917.7
2017-May-27 20:59N 48°26' W 124°35'816.7
2017-May-27 20:30N 48°28' W 124°47'816.7
2017-May-27 20:00N 48°29' W 124°59'816.5
2017-May-27 19:30N 48°29' W 125°11'815.6
2017-May-27 19:00N 48°33' W 125°22'816.0
2017-May-27 18:30N 48°38' W 125°32'815.6
2017-May-27 18:00N 48°42' W 125°41'815.7
2017-May-27 17:30N 48°46' W 125°52'815.6
2017-May-27 17:00N 48°50' W 126°02'816.2
2017-May-27 16:30N 48°54' W 126°13'816.2
2017-May-27 16:00N 48°58' W 126°23'816.6
2017-May-27 15:30N 49°02' W 126°34'816.7
2017-May-27 15:00N 49°07' W 126°45'816.7
2017-May-27 14:30N 49°12' W 126°55'1716.7
2017-May-27 13:30N 49°23' W 127°14'916.8
2017-May-27 12:59N 49°29' W 127°25'1017.2
2017-May-27 12:24N 49°35' W 127°36'917.4
2017-May-27 11:53N 49°41' W 127°46'917.8
2017-May-27 11:22N 49°47' W 127°57'1419.6
2017-May-27 10:38N 49°57' W 128°13'419.0
2017-May-27 10:24N 50°00' W 128°19'819.3
2017-May-27 10:00N 50°05' W 128°27'1019.3
2017-May-27 09:30N 50°12' W 128°39'1118.9
2017-May-27 08:55N 50°19' W 128°52'717.9
2017-May-27 08:30N 50°24' W 129°00'918.4
2017-May-27 08:00N 50°30' W 129°11'919.0
2017-May-27 07:30N 50°36' W 129°22'1019.0
2017-May-27 07:00N 50°43' W 129°33'918.8
2017-May-27 06:30N 50°49' W 129°44'1618.7
2017-May-27 05:40N 51°00' W 130°02'318.6
2017-May-27 05:30N 51°02' W 130°05'918.5
2017-May-27 05:00N 51°09' W 130°16'918.3
2017-May-27 04:30N 51°15' W 130°27'  
2017-May-22 22:39N 51°38' W 129°58'320.1
2017-May-22 22:29N 51°35' W 129°56'16318.4
2017-May-22 13:37N 49°26' W 127°18'616.5
2017-May-22 13:15N 49°22' W 127°12'416.6
2017-May-22 13:01N 49°19' W 127°07'816.3
2017-May-22 12:29N 49°14' W 126°57'815.9
2017-May-22 12:00N 49°09' W 126°48'816.3
2017-May-22 11:30N 49°04' W 126°38'816.5
2017-May-22 11:00N 48°59' W 126°28'916.8
2017-May-22 10:30N 48°55' W 126°17'817.2
2017-May-22 10:01N 48°51' W 126°06'917.3
2017-May-22 09:30N 48°46' W 125°54'917.6
2017-May-22 09:01N 48°41' W 125°43'917.8
2017-May-22 08:31N 48°37' W 125°32'918.1
2017-May-22 08:01N 48°33' W 125°19'918.5
2017-May-22 07:30N 48°31' W 125°05'919.0
2017-May-22 07:01N 48°31' W 124°51'918.3
2017-May-22 06:30N 48°29' W 124°38'918.4
2017-May-22 06:01N 48°25' W 124°25'918.3
2017-May-22 05:31N 48°22' W 124°12'917.8
2017-May-22 05:00N 48°18' W 123°60'917.8
2017-May-22 04:30N 48°16' W 123°47'918.1
2017-May-22 03:59N 48°15' W 123°33'817.3
2017-May-22 03:30N 48°10' W 123°23'713.5
2017-May-22 03:00N 48°11' W 123°13'918.2
2017-May-22 02:30N 48°12' W 122°59'1019.0
2017-May-22 02:00N 48°11' W 122°45'916.7
2017-May-22 01:28N 48°03' W 122°39'918.7
2017-May-22 01:00N 47°56' W 122°31'917.9
2017-May-22 00:30N 47°48' W 122°27'816.9
2017-May-22 00:00N 47°39' W 122°27'3 7.0
2017-May-21 23:30N 47°37' W 122°23'0 0.7
2017-May-21 23:00N 47°38' W 122°23'0 0.0
2017-May-21 22:30N 47°38' W 122°23'0 0.0
2017-May-21 22:00N 47°38' W 122°23'0 0.0
2017-May-21 21:30N 47°38' W 122°23'0 0.0
2017-May-21 21:00N 47°38' W 122°23'0 0.0
2017-May-21 20:30N 47°38' W 122°23'0 0.0
2017-May-21 19:59N 47°38' W 122°23'0 0.0
2017-May-21 19:30N 47°38' W 122°23'0 0.2
2017-May-21 18:59N 47°38' W 122°23'0 0.0
2017-May-21 18:29N 47°38' W 122°23'0 0.0
2017-May-21 17:58N 47°38' W 122°23'0 0.0
2017-May-21 17:29N 47°38' W 122°23'0 0.0
2017-May-21 16:58N 47°38' W 122°23'0 0.0
2017-May-21 16:28N 47°38' W 122°23'0 0.0
2017-May-21 16:00N 47°38' W 122°23'0 0.2
2017-May-21 15:29N 47°38' W 122°23'0 0.0
2017-May-21 14:59N 47°38' W 122°23'0 0.0
2017-May-21 14:30N 47°38' W 122°23'0 0.0
2017-May-21 13:30N 47°38' W 122°23'0 0.1
2017-May-21 13:01N 47°38' W 122°23'2 3.2
2017-May-21 12:30N 47°37' W 122°25'815.4
2017-May-21 12:01N 47°45' W 122°27'1121.3
2017-May-21 11:31N 47°55' W 122°30'1020.2
2017-May-21 10:59N 48°04' W 122°39'918.2
2017-May-21 10:30N 48°10' W 122°49'1020.5
2017-May-21 10:01N 48°12' W 123°04'1020.1
2017-May-21 09:30N 48°10' W 123°19'613.0
2017-May-21 09:01N 48°11' W 123°28'612.9
2017-May-21 08:30N 48°18' W 123°28'714.1
2017-May-21 08:01N 48°23' W 123°21'714.2
2017-May-21 07:31N 48°27' W 123°12'1019.9
2017-May-21 07:00N 48°37' W 123°14'714.1
2017-May-21 06:30N 48°43' W 123°11'917.2
2017-May-21 06:01N 48°48' W 123°00'917.5
2017-May-21 05:30N 48°55' W 123°10'1021.0
2017-May-21 05:00N 49°02' W 123°21'1019.7
2017-May-21 04:31N 49°12' W 123°22'918.0
2017-May-21 04:00N 49°19' W 123°14'511.0
2017-May-21 03:30N 49°18' W 123°06'1 1.0
2017-May-21 02:58N 49°17' W 123°07'0 0.0
2017-May-21 02:30N 49°17' W 123°07'0 0.0
2017-May-21 02:00N 49°17' W 123°07'0 0.0
2017-May-21 01:30N 49°17' W 123°07'0 0.0
2017-May-21 01:00N 49°17' W 123°07'0 0.0
2017-May-21 00:30N 49°17' W 123°07'0 0.0
2017-May-20 23:59N 49°17' W 123°07'0 0.0
2017-May-20 23:29N 49°17' W 123°07'0 0.0
2017-May-20 22:59N 49°17' W 123°07'0 0.0
2017-May-20 22:29N 49°17' W 123°07'0 0.0
2017-May-20 21:58N 49°17' W 123°07'0 0.0
2017-May-20 21:28N 49°17' W 123°07'0 0.0
2017-May-20 20:58N 49°17' W 123°07'0 0.0
2017-May-20 20:25N 49°17' W 123°07'0 0.0
2017-May-20 20:01N 49°17' W 123°07'0 0.0
2017-May-20 19:30N 49°17' W 123°07'0 0.0
2017-May-20 19:00N 49°17' W 123°07'0 0.0
2017-May-20 18:30N 49°17' W 123°07'0 0.0
2017-May-20 18:00N 49°17' W 123°07'0 0.0
2017-May-20 17:29N 49°17' W 123°07'0 0.0
2017-May-20 16:59N 49°17' W 123°07'0 0.0
2017-May-20 16:29N 49°17' W 123°07'0 0.0
2017-May-20 15:59N 49°17' W 123°07'0 0.0
2017-May-20 15:29N 49°17' W 123°07'0 0.0
2017-May-20 14:58N 49°17' W 123°07'0 0.0
2017-May-20 14:28N 49°17' W 123°07'0 0.0
2017-May-20 13:25N 49°17' W 123°07'0 0.6
2017-May-20 13:00N 49°17' W 123°06'3 6.2
2017-May-20 12:30N 49°19' W 123°10'5 9.3
2017-May-20 12:00N 49°18' W 123°17'816.7
2017-May-20 11:30N 49°18' W 123°30'1019.6
2017-May-20 11:00N 49°20' W 123°45'1121.5
2017-May-20 10:31N 49°22' W 124°01'1422.4
2017-May-20 09:53N 49°27' W 124°21'921.8
2017-May-20 09:30N 49°32' W 124°32'1122.8
2017-May-20 09:00N 49°40' W 124°43'1122.4
2017-May-20 08:31N 49°48' W 124°55'1121.4
2017-May-20 08:00N 49°56' W 125°07'815.5
2017-May-20 07:31N 50°02' W 125°14'713.2
2017-May-20 07:00N 50°07' W 125°21'714.1
2017-May-20 06:30N 50°14' W 125°23'713.4
2017-May-20 06:00N 50°20' W 125°27'1013.6
2017-May-20 05:16N 50°22' W 125°42'4114.0
2017-May-20 02:19N 50°36' W 126°44'514.9
2017-May-20 02:00N 50°39' W 126°49'915.3
2017-May-20 01:26N 50°43' W 127°02'715.7
2017-May-20 01:00N 50°46' W 127°11'815.8
2017-May-20 00:29N 50°49' W 127°23'815.7
2017-May-19 23:59N 50°52' W 127°35'715.3
2017-May-19 23:30N 50°57' W 127°43'612.4
2017-May-19 23:00N 51°01' W 127°51'713.9
2017-May-19 22:30N 51°04' W 128°01'714.1
2017-May-19 22:00N 51°08' W 128°10'714.0
2017-May-19 21:30N 51°12' W 128°19'714.3
2017-May-19 21:00N 51°17' W 128°27'714.9
2017-May-19 20:30N 51°23' W 128°34'714.9
2017-May-19 20:00N 51°29' W 128°42'714.9
2017-May-19 19:30N 51°35' W 128°50'714.9
2017-May-19 19:00N 51°40' W 128°57'815.4
2017-May-19 18:30N 51°46' W 129°05'714.7
2017-May-19 18:00N 51°52' W 129°12'714.4
2017-May-19 17:30N 51°58' W 129°20'714.5
2017-May-19 17:00N 52°03' W 129°27'  
Track history (hours):
 
Tides and Currents Weather Stations Pressure Air Temp Water Temp Dewpoint Dewpoint Depression Visibility Wind Speed Wind Dir Waves Ship Positions

Emerald Princess

Last reported at 2017-May-28 12:00 UTC. Time now 2017-May-28 12:23 UTC.
Position N 47°40' W 122°28'.

Type: Passenger vessel. MMSI: 310531000.

Date/timePositionNaut miles runAvg speedWind from/ knotsBaromVisibWave heightAir tempDewpointWater temp
2017-May-28 12:00N 47°40' W 122°28'713.3
2017-May-28 11:30N 47°46' W 122°27'713.7
2017-May-28 11:00N 47°53' W 122°29'816.6
2017-May-28 10:30N 47°60' W 122°37'1019.1
2017-May-28 10:00N 48°08' W 122°43'1019.6
2017-May-28 09:30N 48°12' W 122°56'918.5
2017-May-28 09:00N 48°12' W 123°10'917.9
2017-May-28 08:30N 48°11' W 123°24'5 9.6
2017-May-28 08:01N 48°13' W 123°30'917.4
2017-May-28 07:30N 48°21' W 123°26'4 8.3
2017-May-28 06:59N 48°25' W 123°24'0 0.0
2017-May-28 06:02N 48°25' W 123°24'0 0.1
2017-May-28 05:56N 48°25' W 123°24'3 1.3
2017-May-28 03:19N 48°22' W 123°24'3 8.4
2017-May-28 03:00N 48°19' W 123°25'711.1
2017-May-28 02:23N 48°13' W 123°31'1319.7
2017-May-28 01:45N 48°25' W 123°24'0 1.0
2017-May-28 01:30N 48°25' W 123°24'1 2.9
2017-May-28 01:00N 48°23' W 123°24'2550.2
2017-May-28 00:30N 48°15' W 123°60'918.2
2017-May-28 00:00N 48°18' W 124°12'1020.4
2017-May-27 23:30N 48°23' W 124°26'1121.4
2017-May-27 23:00N 48°27' W 124°41'2951.7
2017-May-27 22:27N 48°15' W 124°01'816.3
2017-May-27 21:59N 48°18' W 124°12'816.6
2017-May-27 21:30N 48°22' W 124°23'917.7
2017-May-27 20:59N 48°26' W 124°35'816.7
2017-May-27 20:30N 48°28' W 124°47'816.7
2017-May-27 20:00N 48°29' W 124°59'816.5
2017-May-27 19:30N 48°29' W 125°11'815.6
2017-May-27 19:00N 48°33' W 125°22'816.0
2017-May-27 18:30N 48°38' W 125°32'815.6
2017-May-27 18:00N 48°42' W 125°41'815.7
2017-May-27 17:30N 48°46' W 125°52'815.6
2017-May-27 17:00N 48°50' W 126°02'816.2
2017-May-27 16:30N 48°54' W 126°13'816.2
2017-May-27 16:00N 48°58' W 126°23'816.6
2017-May-27 15:30N 49°02' W 126°34'816.7
2017-May-27 15:00N 49°07' W 126°45'816.7
2017-May-27 14:30N 49°12' W 126°55'1716.7
2017-May-27 13:30N 49°23' W 127°14'916.8
2017-May-27 12:59N 49°29' W 127°25'1017.2
2017-May-27 12:24N 49°35' W 127°36'917.4
2017-May-27 11:53N 49°41' W 127°46'917.8
2017-May-27 11:22N 49°47' W 127°57'1419.6
2017-May-27 10:38N 49°57' W 128°13'419.0
2017-May-27 10:24N 50°00' W 128°19'819.3
2017-May-27 10:00N 50°05' W 128°27'1019.3
2017-May-27 09:30N 50°12' W 128°39'1118.9
2017-May-27 08:55N 50°19' W 128°52'717.9
2017-May-27 08:30N 50°24' W 129°00'918.4
2017-May-27 08:00N 50°30' W 129°11'919.0
2017-May-27 07:30N 50°36' W 129°22'1019.0
2017-May-27 07:00N 50°43' W 129°33'918.8
2017-May-27 06:30N 50°49' W 129°44'1618.7
2017-May-27 05:40N 51°00' W 130°02'318.6
2017-May-27 05:30N 51°02' W 130°05'918.5
2017-May-27 05:00N 51°09' W 130°16'918.3
2017-May-27 04:30N 51°15' W 130°27'  
2017-May-22 22:39N 51°38' W 129°58'320.1
2017-May-22 22:29N 51°35' W 129°56'16318.4
2017-May-22 13:37N 49°26' W 127°18'616.5
2017-May-22 13:15N 49°22' W 127°12'416.6
2017-May-22 13:01N 49°19' W 127°07'816.3
2017-May-22 12:29N 49°14' W 126°57'815.9
2017-May-22 12:00N 49°09' W 126°48'816.3
2017-May-22 11:30N 49°04' W 126°38'816.5
2017-May-22 11:00N 48°59' W 126°28'916.8
2017-May-22 10:30N 48°55' W 126°17'817.2
2017-May-22 10:01N 48°51' W 126°06'917.3
2017-May-22 09:30N 48°46' W 125°54'917.6
2017-May-22 09:01N 48°41' W 125°43'917.8
2017-May-22 08:31N 48°37' W 125°32'918.1
2017-May-22 08:01N 48°33' W 125°19'918.5
2017-May-22 07:30N 48°31' W 125°05'919.0
2017-May-22 07:01N 48°31' W 124°51'918.3
2017-May-22 06:30N 48°29' W 124°38'918.4
2017-May-22 06:01N 48°25' W 124°25'918.3
2017-May-22 05:31N 48°22' W 124°12'917.8
2017-May-22 05:00N 48°18' W 123°60'917.8
2017-May-22 04:30N 48°16' W 123°47'918.1
2017-May-22 03:59N 48°15' W 123°33'817.3
2017-May-22 03:30N 48°10' W 123°23'713.5
2017-May-22 03:00N 48°11' W 123°13'918.2
2017-May-22 02:30N 48°12' W 122°59'1019.0
2017-May-22 02:00N 48°11' W 122°45'916.7
2017-May-22 01:28N 48°03' W 122°39'918.7
2017-May-22 01:00N 47°56' W 122°31'917.9
2017-May-22 00:30N 47°48' W 122°27'816.9
2017-May-22 00:00N 47°39' W 122°27'3 7.0
2017-May-21 23:30N 47°37' W 122°23'0 0.7
2017-May-21 23:00N 47°38' W 122°23'0 0.0
2017-May-21 22:30N 47°38' W 122°23'0 0.0
2017-May-21 22:00N 47°38' W 122°23'0 0.0
2017-May-21 21:30N 47°38' W 122°23'0 0.0
2017-May-21 21:00N 47°38' W 122°23'0 0.0
2017-May-21 20:30N 47°38' W 122°23'0 0.0
2017-May-21 19:59N 47°38' W 122°23'0 0.0
2017-May-21 19:30N 47°38' W 122°23'0 0.2
2017-May-21 18:59N 47°38' W 122°23'0 0.0
2017-May-21 18:29N 47°38' W 122°23'0 0.0
2017-May-21 17:58N 47°38' W 122°23'0 0.0
2017-May-21 17:29N 47°38' W 122°23'0 0.0
2017-May-21 16:58N 47°38' W 122°23'0 0.0
2017-May-21 16:28N 47°38' W 122°23'0 0.0
2017-May-21 16:00N 47°38' W 122°23'0 0.2
2017-May-21 15:29N 47°38' W 122°23'0 0.0
2017-May-21 14:59N 47°38' W 122°23'0 0.0
2017-May-21 14:30N 47°38' W 122°23'0 0.0
2017-May-21 13:30N 47°38' W 122°23'0 0.1
2017-May-21 13:01N 47°38' W 122°23'2 3.2
2017-May-21 12:30N 47°37' W 122°25'815.4
2017-May-21 12:01N 47°45' W 122°27'1121.3
2017-May-21 11:31N 47°55' W 122°30'1020.2
2017-May-21 10:59N 48°04' W 122°39'918.2
2017-May-21 10:30N 48°10' W 122°49'1020.5
2017-May-21 10:01N 48°12' W 123°04'1020.1
2017-May-21 09:30N 48°10' W 123°19'613.0
2017-May-21 09:01N 48°11' W 123°28'612.9
2017-May-21 08:30N 48°18' W 123°28'714.1
2017-May-21 08:01N 48°23' W 123°21'714.2
2017-May-21 07:31N 48°27' W 123°12'1019.9
2017-May-21 07:00N 48°37' W 123°14'714.1
2017-May-21 06:30N 48°43' W 123°11'917.2
2017-May-21 06:01N 48°48' W 123°00'917.5
2017-May-21 05:30N 48°55' W 123°10'1021.0
2017-May-21 05:00N 49°02' W 123°21'1019.7
2017-May-21 04:31N 49°12' W 123°22'918.0
2017-May-21 04:00N 49°19' W 123°14'511.0
2017-May-21 03:30N 49°18' W 123°06'1 1.0
2017-May-21 02:58N 49°17' W 123°07'0 0.0
2017-May-21 02:30N 49°17' W 123°07'0 0.0
2017-May-21 02:00N 49°17' W 123°07'0 0.0
2017-May-21 01:30N 49°17' W 123°07'0 0.0
2017-May-21 01:00N 49°17' W 123°07'0 0.0
2017-May-21 00:30N 49°17' W 123°07'0 0.0
2017-May-20 23:59N 49°17' W 123°07'0 0.0
2017-May-20 23:29N 49°17' W 123°07'0 0.0
2017-May-20 22:59N 49°17' W 123°07'0 0.0
2017-May-20 22:29N 49°17' W 123°07'0 0.0
2017-May-20 21:58N 49°17' W 123°07'0 0.0
2017-May-20 21:28N 49°17' W 123°07'0 0.0
2017-May-20 20:58N 49°17' W 123°07'0 0.0
2017-May-20 20:25N 49°17' W 123°07'0 0.0
2017-May-20 20:01N 49°17' W 123°07'0 0.0
2017-May-20 19:30N 49°17' W 123°07'0 0.0
2017-May-20 19:00N 49°17' W 123°07'0 0.0
2017-May-20 18:30N 49°17' W 123°07'0 0.0
2017-May-20 18:00N 49°17' W 123°07'0 0.0
2017-May-20 17:29N 49°17' W 123°07'0 0.0
2017-May-20 16:59N 49°17' W 123°07'0 0.0
2017-May-20 16:29N 49°17' W 123°07'0 0.0
2017-May-20 15:59N 49°17' W 123°07'0 0.0
2017-May-20 15:29N 49°17' W 123°07'0 0.0
2017-May-20 14:58N 49°17' W 123°07'0 0.0
2017-May-20 14:28N 49°17' W 123°07'0 0.0
2017-May-20 13:25N 49°17' W 123°07'0 0.6
2017-May-20 13:00N 49°17' W 123°06'3 6.2
2017-May-20 12:30N 49°19' W 123°10'5 9.3
2017-May-20 12:00N 49°18' W 123°17'816.7
2017-May-20 11:30N 49°18' W 123°30'1019.6
2017-May-20 11:00N 49°20' W 123°45'1121.5
2017-May-20 10:31N 49°22' W 124°01'1422.4
2017-May-20 09:53N 49°27' W 124°21'921.8
2017-May-20 09:30N 49°32' W 124°32'1122.8
2017-May-20 09:00N 49°40' W 124°43'1122.4
2017-May-20 08:31N 49°48' W 124°55'1121.4
2017-May-20 08:00N 49°56' W 125°07'815.5
2017-May-20 07:31N 50°02' W 125°14'713.2
2017-May-20 07:00N 50°07' W 125°21'714.1
2017-May-20 06:30N 50°14' W 125°23'713.4
2017-May-20 06:00N 50°20' W 125°27'1013.6
2017-May-20 05:16N 50°22' W 125°42'4114.0
2017-May-20 02:19N 50°36' W 126°44'514.9
2017-May-20 02:00N 50°39' W 126°49'915.3
2017-May-20 01:26N 50°43' W 127°02'715.7
2017-May-20 01:00N 50°46' W 127°11'815.8
2017-May-20 00:29N 50°49' W 127°23'815.7
2017-May-19 23:59N 50°52' W 127°35'715.3
2017-May-19 23:30N 50°57' W 127°43'612.4
2017-May-19 23:00N 51°01' W 127°51'713.9
2017-May-19 22:30N 51°04' W 128°01'714.1
2017-May-19 22:00N 51°08' W 128°10'714.0
2017-May-19 21:30N 51°12' W 128°19'714.3
2017-May-19 21:00N 51°17' W 128°27'714.9
2017-May-19 20:30N 51°23' W 128°34'714.9
2017-May-19 20:00N 51°29' W 128°42'714.9
2017-May-19 19:30N 51°35' W 128°50'714.9
2017-May-19 19:00N 51°40' W 128°57'815.4
2017-May-19 18:30N 51°46' W 129°05'714.7
2017-May-19 18:00N 51°52' W 129°12'714.4
2017-May-19 17:30N 51°58' W 129°20'714.5
2017-May-19 17:00N 52°03' W 129°27'  

Dump ship's entire track history